sensor_id;sensor_type;location;lat;lon;timestamp;P1;durP1;ratioP1;P2;durP2;ratioP2
50651;SDS011;66928;52.086;5.240;2023-05-07T05:23:13;16.5;;;14.9;;
50651;SDS011;66928;52.086;5.240;2023-05-07T05:24:49;17.2;;;15.6;;
50651;SDS011;66928;52.086;5.240;2023-05-07T05:26:25;16.3;;;14.9;;
50651;SDS011;66928;52.086;5.240;2023-05-07T05:29:37;15.3;;;14.0;;
50651;SDS011;66928;52.086;5.240;2023-05-07T05:31:14;15.6;;;14.2;;
50651;SDS011;66928;52.086;5.240;2023-05-07T05:32:50;15.9;;;14.4;;
50651;SDS011;66928;52.086;5.240;2023-05-07T05:36:02;12.6;;;11.5;;
50651;SDS011;66928;52.086;5.240;2023-05-07T05:37:39;12.8;;;11.6;;
50651;SDS011;66928;52.086;5.240;2023-05-07T05:39:15;10.21;;;9.4;;
50651;SDS011;66928;52.086;5.240;2023-05-07T05:40:53;13.0;;;11.9;;
50651;SDS011;66928;52.086;5.240;2023-05-07T05:44:06;15.2;;;13.8;;
50651;SDS011;66928;52.086;5.240;2023-05-07T05:45:42;15.1;;;13.7;;
50651;SDS011;66928;52.086;5.240;2023-05-07T05:47:18;15.4;;;13.9;;
50651;SDS011;66928;52.086;5.240;2023-05-07T05:50:30;15.4;;;14.0;;
50651;SDS011;66928;52.086;5.240;2023-05-07T05:52:06;14.9;;;13.5;;
50651;SDS011;66928;52.086;5.240;2023-05-07T05:53:43;14.9;;;13.6;;
50651;SDS011;66928;52.086;5.240;2023-05-07T05:56:56;15.5;;;14.0;;
50651;SDS011;66928;52.086;5.240;2023-05-07T05:58:33;16.4;;;14.9;;
50651;SDS011;66928;52.086;5.240;2023-05-07T06:00:09;15.7;;;14.2;;
50651;SDS011;66928;52.086;5.240;2023-05-07T06:01:46;16.2;;;14.7;;
50651;SDS011;66928;52.086;5.240;2023-05-07T06:04:59;16.0;;;14.5;;
50651;SDS011;66928;52.086;5.240;2023-05-07T06:06:35;17.0;;;15.5;;
50651;SDS011;66928;52.086;5.240;2023-05-07T06:08:11;15.3;;;13.9;;
50651;SDS011;66928;52.086;5.240;2023-05-07T06:11:23;15.9;;;14.4;;
50651;SDS011;66928;52.086;5.240;2023-05-07T06:12:59;13.2;;;12.0;;
50651;SDS011;66928;52.086;5.240;2023-05-07T06:14:36;14.4;;;13.0;;
50651;SDS011;66928;52.086;5.240;2023-05-07T06:17:49;15.5;;;14.0;;
50651;SDS011;66928;52.086;5.240;2023-05-07T06:19:25;14.4;;;13.0;;
50651;SDS011;66928;52.086;5.240;2023-05-07T06:21:01;14.3;;;13.0;;
50651;SDS011;66928;52.086;5.240;2023-05-07T06:22:38;11.0;;;9.9;;
50651;SDS011;66928;52.086;5.240;2023-05-07T06:25:51;15.6;;;14.1;;
50651;SDS011;66928;52.086;5.240;2023-05-07T06:27:28;14.3;;;13.0;;
50651;SDS011;66928;52.086;5.240;2023-05-07T06:29:04;11.5;;;10.4;;
50651;SDS011;66928;52.086;5.240;2023-05-07T06:32:16;15.4;;;13.9;;
50651;SDS011;66928;52.086;5.240;2023-05-07T06:33:55;14.3;;;12.9;;
50651;SDS011;66928;52.086;5.240;2023-05-07T06:35:31;15.1;;;13.6;;
50651;SDS011;66928;52.086;5.240;2023-05-07T06:38:43;12.4;;;10.8;;
50651;SDS011;66928;52.086;5.240;2023-05-07T06:40:19;15.2;;;13.7;;
50651;SDS011;66928;52.086;5.240;2023-05-07T06:41:55;11.6;;;10.4;;
50651;SDS011;66928;52.086;5.240;2023-05-07T06:43:32;11.8;;;10.6;;
50651;SDS011;66928;52.086;5.240;2023-05-07T06:46:46;15.6;;;14.2;;
50651;SDS011;66928;52.086;5.240;2023-05-07T06:48:22;13.2;;;12.0;;
50651;SDS011;66928;52.086;5.240;2023-05-07T06:49:58;15.2;;;13.8;;
50651;SDS011;66928;52.086;5.240;2023-05-07T06:53:10;14.1;;;12.8;;
50651;SDS011;66928;52.086;5.240;2023-05-07T06:54:46;13.7;;;12.5;;
50651;SDS011;66928;52.086;5.240;2023-05-07T06:56:23;10.21;;;9.21;;
50651;SDS011;66928;52.086;5.240;2023-05-07T06:59:36;14.7;;;13.2;;
50651;SDS011;66928;52.086;5.240;2023-05-07T07:01:12;13.3;;;12.0;;
50651;SDS011;66928;52.086;5.240;2023-05-07T07:02:48;10.6;;;9.6;;
50651;SDS011;66928;52.086;5.240;2023-05-07T07:06:00;14.4;;;13.0;;
50651;SDS011;66928;52.086;5.240;2023-05-07T07:07:37;14.3;;;12.9;;
50651;SDS011;66928;52.086;5.240;2023-05-07T07:09:13;13.3;;;12.1;;
50651;SDS011;66928;52.086;5.240;2023-05-07T07:10:49;10.1;;;9.1;;
50651;SDS011;66928;52.086;5.240;2023-05-07T07:14:01;11.8;;;10.3;;
50651;SDS011;66928;52.086;5.240;2023-05-07T07:15:37;11.3;;;10.21;;
50651;SDS011;66928;52.086;5.240;2023-05-07T07:17:14;12.3;;;11.1;;
50651;SDS011;66928;52.086;5.240;2023-05-07T07:20:27;8.31;;;7.6;;
50651;SDS011;66928;52.086;5.240;2023-05-07T07:22:03;10.6;;;9.5;;
50651;SDS011;66928;52.086;5.240;2023-05-07T07:23:39;10.5;;;9.6;;
50651;SDS011;66928;52.086;5.240;2023-05-07T07:26:53;14.3;;;13.0;;
50651;SDS011;66928;52.086;5.240;2023-05-07T07:28:29;15.0;;;13.7;;
50651;SDS011;66928;52.086;5.240;2023-05-07T07:30:06;13.9;;;12.6;;
50651;SDS011;66928;52.086;5.240;2023-05-07T07:31:43;13.3;;;12.0;;
50651;SDS011;66928;52.086;5.240;2023-05-07T07:34:55;12.9;;;11.6;;
50651;SDS011;66928;52.086;5.240;2023-05-07T07:36:31;13.1;;;11.8;;
50651;SDS011;66928;52.086;5.240;2023-05-07T07:38:07;9.6;;;8.6;;
50651;SDS011;66928;52.086;5.240;2023-05-07T07:41:20;12.9;;;11.7;;
50651;SDS011;66928;52.086;5.240;2023-05-07T07:42:56;12.6;;;11.4;;
50651;SDS011;66928;52.086;5.240;2023-05-07T07:44:33;9.31;;;8.4;;
50651;SDS011;66928;52.086;5.240;2023-05-07T07:47:48;13.3;;;12.1;;
50651;SDS011;66928;52.086;5.240;2023-05-07T07:49:24;15.6;;;14.2;;
50651;SDS011;66928;52.086;5.240;2023-05-07T07:51:00;16.3;;;14.7;;
50651;SDS011;66928;52.086;5.240;2023-05-07T07:52:37;17.0;;;15.4;;
50651;SDS011;66928;52.086;5.240;2023-05-07T07:55:50;16.0;;;14.5;;
50651;SDS011;66928;52.086;5.240;2023-05-07T07:57:26;17.41;;;15.8;;
50651;SDS011;66928;52.086;5.240;2023-05-07T07:59:03;16.11;;;14.5;;
50651;SDS011;66928;52.086;5.240;2023-05-07T08:02:16;17.7;;;16.0;;
50651;SDS011;66928;52.086;5.240;2023-05-07T08:03:53;17.2;;;15.6;;
50651;SDS011;66928;52.086;5.240;2023-05-07T08:05:29;17.61;;;15.9;;
50651;SDS011;66928;52.086;5.240;2023-05-07T08:08:42;18.2;;;16.4;;
50651;SDS011;66928;52.086;5.240;2023-05-07T08:10:19;16.9;;;15.3;;
50651;SDS011;66928;52.086;5.240;2023-05-07T08:11:56;16.9;;;15.3;;
50651;SDS011;66928;52.086;5.240;2023-05-07T08:13:33;10.0;;;9.1;;
50651;SDS011;66928;52.086;5.240;2023-05-07T08:16:47;8.5;;;7.6;;
50651;SDS011;66928;52.086;5.240;2023-05-07T08:18:24;15.1;;;13.6;;
50651;SDS011;66928;52.086;5.240;2023-05-07T08:20:01;11.6;;;10.5;;
50651;SDS011;66928;52.086;5.240;2023-05-07T08:23:15;15.1;;;13.7;;
50651;SDS011;66928;52.086;5.240;2023-05-07T08:24:51;13.5;;;12.3;;
50651;SDS011;66928;52.086;5.240;2023-05-07T08:26:28;15.9;;;14.4;;
50651;SDS011;66928;52.086;5.240;2023-05-07T08:29:41;13.4;;;12.2;;
50651;SDS011;66928;52.086;5.240;2023-05-07T08:31:17;14.0;;;12.7;;
50651;SDS011;66928;52.086;5.240;2023-05-07T08:32:53;8.0;;;7.3;;
50651;SDS011;66928;52.086;5.240;2023-05-07T08:34:29;11.3;;;10.21;;
50651;SDS011;66928;52.086;5.240;2023-05-07T08:37:42;14.3;;;13.0;;
50651;SDS011;66928;52.086;5.240;2023-05-07T08:39:19;13.8;;;12.5;;
50651;SDS011;66928;52.086;5.240;2023-05-07T08:40:55;13.3;;;12.2;;
50651;SDS011;66928;52.086;5.240;2023-05-07T08:44:12;15.2;;;13.8;;
50651;SDS011;66928;52.086;5.240;2023-05-07T08:45:50;14.2;;;12.8;;
50651;SDS011;66928;52.086;5.240;2023-05-07T08:49:15;14.7;;;13.4;;
50651;SDS011;66928;52.086;5.240;2023-05-07T08:52:29;15.5;;;14.1;;
50651;SDS011;66928;52.086;5.240;2023-05-07T08:54:05;15.4;;;14.0;;
50651;SDS011;66928;52.086;5.240;2023-05-07T08:55:44;13.7;;;12.5;;
50651;SDS011;66928;52.086;5.240;2023-05-07T08:58:58;13.8;;;12.5;;
50651;SDS011;66928;52.086;5.240;2023-05-07T09:00:35;12.9;;;11.8;;
50651;SDS011;66928;52.086;5.240;2023-05-07T09:02:13;15.5;;;14.1;;
50651;SDS011;66928;52.086;5.240;2023-05-07T09:03:50;12.7;;;11.4;;
50651;SDS011;66928;52.086;5.240;2023-05-07T09:07:04;11.5;;;10.5;;
50651;SDS011;66928;52.086;5.240;2023-05-07T09:08:40;11.5;;;10.5;;
50651;SDS011;66928;52.086;5.240;2023-05-07T09:10:25;10.8;;;9.81;;
50651;SDS011;66928;52.086;5.240;2023-05-07T09:13:39;13.7;;;12.5;;
50651;SDS011;66928;52.086;5.240;2023-05-07T09:15:15;10.9;;;9.9;;
50651;SDS011;66928;52.086;5.240;2023-05-07T09:16:51;12.5;;;11.3;;
50651;SDS011;66928;52.086;5.240;2023-05-07T09:18:28;12.5;;;11.3;;
50651;SDS011;66928;52.086;5.240;2023-05-07T09:21:43;11.1;;;10.0;;
50651;SDS011;66928;52.086;5.240;2023-05-07T09:23:20;15.3;;;13.8;;
50651;SDS011;66928;52.086;5.240;2023-05-07T09:24:57;14.2;;;12.9;;
50651;SDS011;66928;52.086;5.240;2023-05-07T09:28:10;13.3;;;12.1;;
50651;SDS011;66928;52.086;5.240;2023-05-07T09:29:46;8.81;;;8.0;;
50651;SDS011;66928;52.086;5.240;2023-05-07T09:31:23;12.1;;;10.9;;
50651;SDS011;66928;52.086;5.240;2023-05-07T09:33:01;13.1;;;11.8;;
50651;SDS011;66928;52.086;5.240;2023-05-07T09:36:18;13.2;;;12.0;;
50651;SDS011;66928;52.086;5.240;2023-05-07T09:37:54;13.5;;;12.2;;
50651;SDS011;66928;52.086;5.240;2023-05-07T09:39:41;12.9;;;11.7;;
50651;SDS011;66928;52.086;5.240;2023-05-07T09:42:55;11.4;;;10.3;;
50651;SDS011;66928;52.086;5.240;2023-05-07T09:44:33;12.6;;;11.4;;
50651;SDS011;66928;52.086;5.240;2023-05-07T09:46:12;7.2;;;6.2;;
50651;SDS011;66928;52.086;5.240;2023-05-07T09:47:50;7.2;;;6.2;;
50651;SDS011;66928;52.086;5.240;2023-05-07T09:51:15;6.6;;;6.0;;
50651;SDS011;66928;52.086;5.240;2023-05-07T09:53:05;7.2;;;6.5;;
50651;SDS011;66928;52.086;5.240;2023-05-07T09:54:45;6.8;;;6.1;;
50651;SDS011;66928;52.086;5.240;2023-05-07T09:56:23;7.8;;;6.0;;
50651;SDS011;66928;52.086;5.240;2023-05-07T09:59:40;6.8;;;6.1;;
50651;SDS011;66928;52.086;5.240;2023-05-07T10:01:19;6.4;;;5.8;;
50651;SDS011;66928;52.086;5.240;2023-05-07T10:02:57;6.9;;;6.0;;
50651;SDS011;66928;52.086;5.240;2023-05-07T10:04:35;6.1;;;4.91;;
50651;SDS011;66928;52.086;5.240;2023-05-07T10:07:51;6.5;;;5.8;;
50651;SDS011;66928;52.086;5.240;2023-05-07T10:09:29;7.1;;;6.0;;
50651;SDS011;66928;52.086;5.240;2023-05-07T10:11:06;7.7;;;7.1;;
50651;SDS011;66928;52.086;5.240;2023-05-07T10:12:42;7.8;;;6.3;;
50651;SDS011;66928;52.086;5.240;2023-05-07T10:15:57;7.4;;;6.7;;
50651;SDS011;66928;52.086;5.240;2023-05-07T10:17:35;6.6;;;5.9;;
50651;SDS011;66928;52.086;5.240;2023-05-07T10:19:12;6.0;;;5.11;;
50651;SDS011;66928;52.086;5.240;2023-05-07T10:22:28;5.3;;;4.8;;
50651;SDS011;66928;52.086;5.240;2023-05-07T10:24:13;8.0;;;7.3;;
50651;SDS011;66928;52.086;5.240;2023-05-07T10:25:55;8.31;;;7.5;;
50651;SDS011;66928;52.086;5.240;2023-05-07T10:27:33;9.9;;;9.0;;
50651;SDS011;66928;52.086;5.240;2023-05-07T10:31:04;9.4;;;8.5;;
50651;SDS011;66928;52.086;5.240;2023-05-07T10:33:01;9.81;;;8.6;;
50651;SDS011;66928;52.086;5.240;2023-05-07T10:34:42;10.5;;;9.6;;
50651;SDS011;66928;52.086;5.240;2023-05-07T10:36:21;11.5;;;10.3;;
50651;SDS011;66928;52.086;5.240;2023-05-07T10:37:59;7.4;;;6.7;;
50651;SDS011;66928;52.086;5.240;2023-05-07T10:41:12;9.6;;;8.0;;
50651;SDS011;66928;52.086;5.240;2023-05-07T10:42:53;8.2;;;7.5;;
50651;SDS011;66928;52.086;5.240;2023-05-07T10:44:31;6.9;;;6.3;;
50651;SDS011;66928;52.086;5.240;2023-05-07T10:48:06;8.9;;;8.1;;
50651;SDS011;66928;52.086;5.240;2023-05-07T10:50:51;10.5;;;9.5;;
50651;SDS011;66928;52.086;5.240;2023-05-07T10:53:27;9.31;;;8.5;;
50651;SDS011;66928;52.086;5.240;2023-05-07T10:55:19;7.8;;;6.5;;
50651;SDS011;66928;52.086;5.240;2023-05-07T10:57:44;8.5;;;7.7;;
50651;SDS011;66928;52.086;5.240;2023-05-07T10:59:29;10.7;;;9.71;;
50651;SDS011;66928;52.086;5.240;2023-05-07T11:01:11;10.8;;;9.71;;
50651;SDS011;66928;52.086;5.240;2023-05-07T11:05:18;10.6;;;9.5;;
50651;SDS011;66928;52.086;5.240;2023-05-07T11:07:21;7.9;;;7.1;;
50651;SDS011;66928;52.086;5.240;2023-05-07T11:10:49;9.31;;;8.31;;
50651;SDS011;66928;52.086;5.240;2023-05-07T11:13:07;7.2;;;6.5;;
50651;SDS011;66928;52.086;5.240;2023-05-07T11:16:23;10.8;;;9.71;;
50651;SDS011;66928;52.086;5.240;2023-05-07T11:18:00;12.9;;;11.7;;
50651;SDS011;66928;52.086;5.240;2023-05-07T11:21:32;12.3;;;11.2;;
50651;SDS011;66928;52.086;5.240;2023-05-07T11:23:39;9.71;;;8.81;;
50651;SDS011;66928;52.086;5.240;2023-05-07T11:25:35;9.5;;;8.6;;
50651;SDS011;66928;52.086;5.240;2023-05-07T11:27:12;12.7;;;11.4;;
50651;SDS011;66928;52.086;5.240;2023-05-07T11:28:49;12.1;;;11.0;;
50651;SDS011;66928;52.086;5.240;2023-05-07T11:30:27;7.2;;;6.4;;
50651;SDS011;66928;52.086;5.240;2023-05-07T11:33:43;10.8;;;9.71;;
50651;SDS011;66928;52.086;5.240;2023-05-07T11:35:22;7.8;;;7.0;;
50651;SDS011;66928;52.086;5.240;2023-05-07T11:36:59;10.21;;;9.1;;
50651;SDS011;66928;52.086;5.240;2023-05-07T11:38:37;11.4;;;10.3;;
50651;SDS011;66928;52.086;5.240;2023-05-07T11:41:50;12.5;;;11.3;;
50651;SDS011;66928;52.086;5.240;2023-05-07T11:43:26;12.2;;;11.0;;
50651;SDS011;66928;52.086;5.240;2023-05-07T11:45:04;10.6;;;9.71;;
50651;SDS011;66928;52.086;5.240;2023-05-07T11:48:20;11.8;;;10.7;;
50651;SDS011;66928;52.086;5.240;2023-05-07T11:50:01;8.4;;;7.6;;
50651;SDS011;66928;52.086;5.240;2023-05-07T11:51:42;9.1;;;8.2;;
50651;SDS011;66928;52.086;5.240;2023-05-07T11:53:19;7.5;;;6.7;;
50651;SDS011;66928;52.086;5.240;2023-05-07T11:56:35;12.5;;;11.2;;
50651;SDS011;66928;52.086;5.240;2023-05-07T11:58:12;11.4;;;10.3;;
50651;SDS011;66928;52.086;5.240;2023-05-07T11:59:56;11.4;;;10.21;;
50651;SDS011;66928;52.086;5.240;2023-05-07T12:01:35;11.6;;;10.6;;
50651;SDS011;66928;52.086;5.240;2023-05-07T12:04:48;12.2;;;11.1;;
50651;SDS011;66928;52.086;5.240;2023-05-07T12:06:24;11.1;;;10.0;;
50651;SDS011;66928;52.086;5.240;2023-05-07T12:08:00;11.6;;;10.4;;
50651;SDS011;66928;52.086;5.240;2023-05-07T12:11:13;12.8;;;11.5;;
50651;SDS011;66928;52.086;5.240;2023-05-07T12:12:52;8.1;;;7.3;;
50651;SDS011;66928;52.086;5.240;2023-05-07T12:14:28;8.4;;;7.0;;
50651;SDS011;66928;52.086;5.240;2023-05-07T12:17:42;8.71;;;7.9;;
50651;SDS011;66928;52.086;5.240;2023-05-07T12:19:19;9.9;;;8.9;;
50651;SDS011;66928;52.086;5.240;2023-05-07T12:20:56;7.9;;;7.0;;
50651;SDS011;66928;52.086;5.240;2023-05-07T12:22:35;10.4;;;9.0;;
50651;SDS011;66928;52.086;5.240;2023-05-07T12:25:50;12.7;;;11.4;;
50651;SDS011;66928;52.086;5.240;2023-05-07T12:27:27;12.4;;;11.3;;
50651;SDS011;66928;52.086;5.240;2023-05-07T12:29:04;13.3;;;12.1;;
50651;SDS011;66928;52.086;5.240;2023-05-07T12:32:19;13.3;;;12.1;;
50651;SDS011;66928;52.086;5.240;2023-05-07T12:33:58;12.2;;;11.0;;
50651;SDS011;66928;52.086;5.240;2023-05-07T12:35:36;11.9;;;10.8;;
50651;SDS011;66928;52.086;5.240;2023-05-07T12:37:16;9.71;;;8.81;;
50651;SDS011;66928;52.086;5.240;2023-05-07T12:40:38;11.0;;;9.9;;
50651;SDS011;66928;52.086;5.240;2023-05-07T12:42:15;11.9;;;10.7;;
50651;SDS011;66928;52.086;5.240;2023-05-07T12:43:55;11.7;;;10.6;;
50651;SDS011;66928;52.086;5.240;2023-05-07T12:45:36;12.0;;;10.8;;
50651;SDS011;66928;52.086;5.240;2023-05-07T12:48:51;13.3;;;12.0;;
50651;SDS011;66928;52.086;5.240;2023-05-07T12:50:30;12.0;;;10.9;;
50651;SDS011;66928;52.086;5.240;2023-05-07T12:52:07;10.7;;;9.0;;
50651;SDS011;66928;52.086;5.240;2023-05-07T12:55:21;13.2;;;12.0;;
50651;SDS011;66928;52.086;5.240;2023-05-07T12:57:01;10.3;;;9.31;;
50651;SDS011;66928;52.086;5.240;2023-05-07T12:58:39;14.1;;;12.8;;
50651;SDS011;66928;52.086;5.240;2023-05-07T13:00:16;13.1;;;11.9;;
50651;SDS011;66928;52.086;5.240;2023-05-07T13:03:30;9.9;;;8.9;;
50651;SDS011;66928;52.086;5.240;2023-05-07T13:05:07;11.5;;;10.0;;
50651;SDS011;66928;52.086;5.240;2023-05-07T13:06:44;9.31;;;8.5;;
50651;SDS011;66928;52.086;5.240;2023-05-07T13:10:02;10.0;;;9.1;;
50651;SDS011;66928;52.086;5.240;2023-05-07T13:11:39;9.81;;;8.9;;
50651;SDS011;66928;52.086;5.240;2023-05-07T13:13:15;10.1;;;8.9;;
50651;SDS011;66928;52.086;5.240;2023-05-07T13:14:52;10.3;;;8.2;;
50651;SDS011;66928;52.086;5.240;2023-05-07T13:18:04;7.8;;;6.4;;
50651;SDS011;66928;52.086;5.240;2023-05-07T13:19:41;6.4;;;5.8;;
50651;SDS011;66928;52.086;5.240;2023-05-07T13:21:17;8.81;;;7.2;;
50651;SDS011;66928;52.086;5.240;2023-05-07T13:24:30;9.71;;;8.0;;
50651;SDS011;66928;52.086;5.240;2023-05-07T13:26:06;6.2;;;5.2;;
50651;SDS011;66928;52.086;5.240;2023-05-07T13:27:43;7.2;;;5.5;;
50651;SDS011;66928;52.086;5.240;2023-05-07T13:30:55;6.0;;;5.0;;
50651;SDS011;66928;52.086;5.240;2023-05-07T13:32:31;5.6;;;4.61;;
50651;SDS011;66928;52.086;5.240;2023-05-07T13:34:07;6.9;;;4.91;;
50651;SDS011;66928;52.086;5.240;2023-05-07T13:35:43;5.8;;;4.7;;
50651;SDS011;66928;52.086;5.240;2023-05-07T13:38:56;5.7;;;4.61;;
50651;SDS011;66928;52.086;5.240;2023-05-07T13:40:33;4.7;;;4.2;;
50651;SDS011;66928;52.086;5.240;2023-05-07T13:42:09;6.1;;;4.1;;
50651;SDS011;66928;52.086;5.240;2023-05-07T13:45:22;5.4;;;4.2;;
50651;SDS011;66928;52.086;5.240;2023-05-07T13:46:58;5.4;;;3.9;;
50651;SDS011;66928;52.086;5.240;2023-05-07T13:48:35;5.2;;;3.6;;
50651;SDS011;66928;52.086;5.240;2023-05-07T13:51:48;4.5;;;3.7;;
50651;SDS011;66928;52.086;5.240;2023-05-07T13:53:24;6.0;;;3.4;;
50651;SDS011;66928;52.086;5.240;2023-05-07T13:55:01;5.2;;;3.5;;
50651;SDS011;66928;52.086;5.240;2023-05-07T13:56:38;5.0;;;3.0;;
50651;SDS011;66928;52.086;5.240;2023-05-07T13:59:51;5.2;;;2.9;;
50651;SDS011;66928;52.086;5.240;2023-05-07T14:01:27;5.6;;;3.0;;
50651;SDS011;66928;52.086;5.240;2023-05-07T14:03:04;4.91;;;3.3;;
50651;SDS011;66928;52.086;5.240;2023-05-07T14:06:17;4.2;;;2.8;;
50651;SDS011;66928;52.086;5.240;2023-05-07T14:07:54;4.91;;;2.8;;
50651;SDS011;66928;52.086;5.240;2023-05-07T14:09:32;7.5;;;3.3;;
50651;SDS011;66928;52.086;5.240;2023-05-07T14:12:45;5.0;;;3.4;;
50651;SDS011;66928;52.086;5.240;2023-05-07T14:14:22;6.9;;;3.8;;
50651;SDS011;66928;52.086;5.240;2023-05-07T14:15:58;6.8;;;4.1;;
50651;SDS011;66928;52.086;5.240;2023-05-07T14:17:35;4.8;;;3.5;;
50651;SDS011;66928;52.086;5.240;2023-05-07T14:20:47;4.41;;;2.9;;
50651;SDS011;66928;52.086;5.240;2023-05-07T14:22:23;4.0;;;3.0;;
50651;SDS011;66928;52.086;5.240;2023-05-07T14:24:00;3.9;;;3.1;;
50651;SDS011;66928;52.086;5.240;2023-05-07T14:27:13;4.41;;;3.2;;
50651;SDS011;66928;52.086;5.240;2023-05-07T14:28:51;6.2;;;3.5;;
50651;SDS011;66928;52.086;5.240;2023-05-07T14:30:27;5.5;;;3.8;;
50651;SDS011;66928;52.086;5.240;2023-05-07T14:33:41;4.3;;;3.9;;
50651;SDS011;66928;52.086;5.240;2023-05-07T14:35:17;4.7;;;4.0;;
50651;SDS011;66928;52.086;5.240;2023-05-07T14:36:54;6.0;;;4.8;;
50651;SDS011;66928;52.086;5.240;2023-05-07T14:38:31;7.2;;;5.0;;
50651;SDS011;66928;52.086;5.240;2023-05-07T14:41:46;5.7;;;4.61;;
50651;SDS011;66928;52.086;5.240;2023-05-07T14:43:23;6.6;;;5.0;;
50651;SDS011;66928;52.086;5.240;2023-05-07T14:44:59;7.1;;;5.9;;
50651;SDS011;66928;52.086;5.240;2023-05-07T14:48:11;5.5;;;4.1;;
50651;SDS011;66928;52.086;5.240;2023-05-07T14:49:47;6.3;;;4.8;;
50651;SDS011;66928;52.086;5.240;2023-05-07T14:51:24;6.4;;;5.4;;
50651;SDS011;66928;52.086;5.240;2023-05-07T14:54:36;6.4;;;5.4;;
50651;SDS011;66928;52.086;5.240;2023-05-07T14:56:14;6.6;;;5.9;;
50651;SDS011;66928;52.086;5.240;2023-05-07T14:57:50;7.6;;;6.9;;
50651;SDS011;66928;52.086;5.240;2023-05-07T14:59:28;7.7;;;6.3;;
50651;SDS011;66928;52.086;5.240;2023-05-07T15:02:41;7.0;;;5.3;;
50651;SDS011;66928;52.086;5.240;2023-05-07T15:04:18;8.81;;;6.4;;
50651;SDS011;66928;52.086;5.240;2023-05-07T15:05:54;6.3;;;5.7;;
50651;SDS011;66928;52.086;5.240;2023-05-07T15:09:07;5.6;;;4.8;;
50651;SDS011;66928;52.086;5.240;2023-05-07T15:10:43;8.5;;;5.0;;
50651;SDS011;66928;52.086;5.240;2023-05-07T15:15:32;7.7;;;5.4;;
50651;SDS011;66928;52.086;5.240;2023-05-07T15:17:09;9.1;;;5.8;;
50651;SDS011;66928;52.086;5.240;2023-05-07T15:18:45;6.9;;;5.11;;
50651;SDS011;66928;52.086;5.240;2023-05-07T15:20:21;8.9;;;5.8;;
50651;SDS011;66928;52.086;5.240;2023-05-07T15:23:36;7.0;;;5.7;;
50651;SDS011;66928;52.086;5.240;2023-05-07T15:25:12;7.1;;;5.2;;
50651;SDS011;66928;52.086;5.240;2023-05-07T15:26:48;8.81;;;6.5;;
50651;SDS011;66928;52.086;5.240;2023-05-07T15:30:00;9.21;;;7.2;;
50651;SDS011;66928;52.086;5.240;2023-05-07T15:31:37;12.0;;;8.0;;
50651;SDS011;66928;52.086;5.240;2023-05-07T15:33:14;11.2;;;7.2;;
50651;SDS011;66928;52.086;5.240;2023-05-07T15:36:27;11.2;;;7.2;;
50651;SDS011;66928;52.086;5.240;2023-05-07T15:38:04;10.7;;;7.3;;
50651;SDS011;66928;52.086;5.240;2023-05-07T15:39:40;8.81;;;7.2;;
50651;SDS011;66928;52.086;5.240;2023-05-07T15:41:16;8.9;;;6.1;;
50651;SDS011;66928;52.086;5.240;2023-05-07T15:44:31;11.3;;;7.0;;
50651;SDS011;66928;52.086;5.240;2023-05-07T15:46:08;11.3;;;7.0;;
50651;SDS011;66928;52.086;5.240;2023-05-07T15:47:44;7.7;;;6.8;;
50651;SDS011;66928;52.086;5.240;2023-05-07T15:50:56;8.9;;;8.0;;
50651;SDS011;66928;52.086;5.240;2023-05-07T15:52:34;9.0;;;7.8;;
50651;SDS011;66928;52.086;5.240;2023-05-07T15:54:11;12.4;;;7.9;;
50651;SDS011;66928;52.086;5.240;2023-05-07T15:55:47;9.21;;;7.9;;
50651;SDS011;66928;52.086;5.240;2023-05-07T15:59:00;10.21;;;8.2;;
50651;SDS011;66928;52.086;5.240;2023-05-07T16:00:37;10.1;;;8.4;;
50651;SDS011;66928;52.086;5.240;2023-05-07T16:02:13;12.2;;;9.4;;
50651;SDS011;66928;52.086;5.240;2023-05-07T16:05:27;11.2;;;9.71;;
50651;SDS011;66928;52.086;5.240;2023-05-07T16:07:03;11.8;;;9.81;;
50651;SDS011;66928;52.086;5.240;2023-05-07T16:08:39;9.5;;;7.7;;
50651;SDS011;66928;52.086;5.240;2023-05-07T16:11:53;10.21;;;8.9;;
50651;SDS011;66928;52.086;5.240;2023-05-07T16:13:29;8.0;;;7.2;;
50651;SDS011;66928;52.086;5.240;2023-05-07T16:15:05;8.31;;;7.4;;
50651;SDS011;66928;52.086;5.240;2023-05-07T16:16:42;6.6;;;6.0;;
50651;SDS011;66928;52.086;5.240;2023-05-07T16:19:54;7.5;;;6.8;;
50651;SDS011;66928;52.086;5.240;2023-05-07T16:21:31;7.3;;;6.5;;
50651;SDS011;66928;52.086;5.240;2023-05-07T16:23:08;6.9;;;6.2;;
50651;SDS011;66928;52.086;5.240;2023-05-07T16:26:22;6.8;;;5.9;;
50651;SDS011;66928;52.086;5.240;2023-05-07T16:27:58;7.8;;;6.3;;
50651;SDS011;66928;52.086;5.240;2023-05-07T16:29:34;6.7;;;6.1;;
50651;SDS011;66928;52.086;5.240;2023-05-07T16:32:46;6.9;;;5.9;;
50651;SDS011;66928;52.086;5.240;2023-05-07T16:34:23;5.7;;;5.0;;
50651;SDS011;66928;52.086;5.240;2023-05-07T16:36:00;4.61;;;3.8;;
50651;SDS011;66928;52.086;5.240;2023-05-07T16:37:38;5.4;;;4.41;;
50651;SDS011;66928;52.086;5.240;2023-05-07T16:40:52;27.8;;;25.4;;
50651;SDS011;66928;52.086;5.240;2023-05-07T16:42:29;15.8;;;14.2;;
50651;SDS011;66928;52.086;5.240;2023-05-07T16:44:05;6.4;;;5.8;;
50651;SDS011;66928;52.086;5.240;2023-05-07T16:47:18;4.91;;;4.41;;
50651;SDS011;66928;52.086;5.240;2023-05-07T16:48:54;5.2;;;4.7;;
50651;SDS011;66928;52.086;5.240;2023-05-07T16:50:31;4.61;;;4.2;;
50651;SDS011;66928;52.086;5.240;2023-05-07T16:53:43;5.11;;;4.61;;
50651;SDS011;66928;52.086;5.240;2023-05-07T16:55:19;4.0;;;3.5;;
50651;SDS011;66928;52.086;5.240;2023-05-07T16:56:56;3.8;;;3.4;;
50651;SDS011;66928;52.086;5.240;2023-05-07T17:00:09;4.3;;;3.9;;
50651;SDS011;66928;52.086;5.240;2023-05-07T17:01:47;4.0;;;3.4;;
50651;SDS011;66928;52.086;5.240;2023-05-07T17:03:24;4.7;;;3.3;;
50651;SDS011;66928;52.086;5.240;2023-05-07T17:05:00;4.7;;;3.3;;
50651;SDS011;66928;52.086;5.240;2023-05-07T17:08:13;5.6;;;4.2;;
50651;SDS011;66928;52.086;5.240;2023-05-07T17:09:49;4.91;;;4.0;;
50651;SDS011;66928;52.086;5.240;2023-05-07T17:11:25;4.2;;;2.8;;
50651;SDS011;66928;52.086;5.240;2023-05-07T17:14:38;4.1;;;3.2;;
50651;SDS011;66928;52.086;5.240;2023-05-07T17:16:14;3.1;;;2.8;;
50651;SDS011;66928;52.086;5.240;2023-05-07T17:17:50;3.4;;;3.1;;
50651;SDS011;66928;52.086;5.240;2023-05-07T17:21:02;3.7;;;2.9;;
50651;SDS011;66928;52.086;5.240;2023-05-07T17:22:39;3.5;;;2.7;;
50651;SDS011;66928;52.086;5.240;2023-05-07T17:24:15;3.0;;;2.7;;
50651;SDS011;66928;52.086;5.240;2023-05-07T17:25:52;2.6;;;2.4;;
50651;SDS011;66928;52.086;5.240;2023-05-07T17:29:07;3.3;;;2.8;;
50651;SDS011;66928;52.086;5.240;2023-05-07T17:30:43;3.0;;;2.7;;
50651;SDS011;66928;52.086;5.240;2023-05-07T17:32:20;2.31;;;2.1;;
50651;SDS011;66928;52.086;5.240;2023-05-07T17:35:32;2.4;;;2.21;;
50651;SDS011;66928;52.086;5.240;2023-05-07T17:37:09;2.5;;;2.31;;
50651;SDS011;66928;52.086;5.240;2023-05-07T17:38:45;2.5;;;2.31;;
50651;SDS011;66928;52.086;5.240;2023-05-07T17:41:58;3.2;;;2.9;;
50651;SDS011;66928;52.086;5.240;2023-05-07T17:43:34;2.9;;;2.6;;
50651;SDS011;66928;52.086;5.240;2023-05-07T17:45:11;2.9;;;2.6;;
50651;SDS011;66928;52.086;5.240;2023-05-07T17:46:48;3.6;;;3.2;;
50651;SDS011;66928;52.086;5.240;2023-05-07T17:50:01;4.2;;;3.5;;
50651;SDS011;66928;52.086;5.240;2023-05-07T17:51:38;4.1;;;3.3;;
50651;SDS011;66928;52.086;5.240;2023-05-07T17:53:16;3.5;;;3.2;;
50651;SDS011;66928;52.086;5.240;2023-05-07T17:56:28;3.7;;;3.3;;
50651;SDS011;66928;52.086;5.240;2023-05-07T17:58:04;3.4;;;3.1;;
50651;SDS011;66928;52.086;5.240;2023-05-07T17:59:40;3.6;;;3.2;;
50651;SDS011;66928;52.086;5.240;2023-05-07T18:02:53;3.6;;;3.1;;
50651;SDS011;66928;52.086;5.240;2023-05-07T18:04:29;4.41;;;3.5;;
50651;SDS011;66928;52.086;5.240;2023-05-07T18:06:06;3.4;;;3.1;;
50651;SDS011;66928;52.086;5.240;2023-05-07T18:07:43;3.8;;;2.8;;
50651;SDS011;66928;52.086;5.240;2023-05-07T18:10:55;3.3;;;3.0;;
50651;SDS011;66928;52.086;5.240;2023-05-07T18:12:31;4.0;;;3.3;;
50651;SDS011;66928;52.086;5.240;2023-05-07T18:14:07;3.6;;;3.3;;
50651;SDS011;66928;52.086;5.240;2023-05-07T18:17:21;3.5;;;3.2;;
50651;SDS011;66928;52.086;5.240;2023-05-07T18:18:57;3.4;;;3.1;;